sensor_id;sensor_type;location;lat;lon;timestamp;P1;durP1;ratioP1;P2;durP2;ratioP2
6424;SDS011;12193;42.642;23.384;2022-11-18T00:01:30;21.97;;;11.73;;
6424;SDS011;12193;42.642;23.384;2022-11-18T00:03:59;20.43;;;11.87;;
6424;SDS011;12193;42.642;23.384;2022-11-18T00:06:30;22.73;;;12.87;;
6424;SDS011;12193;42.642;23.384;2022-11-18T00:08:59;21.73;;;12.10;;
6424;SDS011;12193;42.642;23.384;2022-11-18T00:11:31;22.33;;;12.63;;
6424;SDS011;12193;42.642;23.384;2022-11-18T00:14:13;25.00;;;12.53;;
6424;SDS011;12193;42.642;23.384;2022-11-18T00:16:48;27.40;;;13.17;;
6424;SDS011;12193;42.642;23.384;2022-11-18T00:19:18;22.50;;;12.20;;
6424;SDS011;12193;42.642;23.384;2022-11-18T00:21:47;25.00;;;13.03;;
6424;SDS011;12193;42.642;23.384;2022-11-18T00:24:16;21.07;;;11.97;;
6424;SDS011;12193;42.642;23.384;2022-11-18T00:26:47;21.87;;;11.57;;
6424;SDS011;12193;42.642;23.384;2022-11-18T00:29:16;24.27;;;12.03;;
6424;SDS011;12193;42.642;23.384;2022-11-18T00:31:45;26.53;;;12.57;;
6424;SDS011;12193;42.642;23.384;2022-11-18T00:34:14;21.23;;;11.60;;
6424;SDS011;12193;42.642;23.384;2022-11-18T00:36:43;22.43;;;12.37;;
6424;SDS011;12193;42.642;23.384;2022-11-18T00:39:13;21.87;;;11.20;;
6424;SDS011;12193;42.642;23.384;2022-11-18T00:41:43;24.73;;;12.03;;
6424;SDS011;12193;42.642;23.384;2022-11-18T00:44:26;18.83;;;11.43;;
6424;SDS011;12193;42.642;23.384;2022-11-18T00:46:55;20.13;;;12.00;;
6424;SDS011;12193;42.642;23.384;2022-11-18T00:49:24;20.90;;;12.07;;
6424;SDS011;12193;42.642;23.384;2022-11-18T00:51:53;18.30;;;11.00;;
6424;SDS011;12193;42.642;23.384;2022-11-18T00:54:22;21.07;;;12.00;;
6424;SDS011;12193;42.642;23.384;2022-11-18T00:56:51;20.40;;;11.23;;
6424;SDS011;12193;42.642;23.384;2022-11-18T00:59:19;20.87;;;11.80;;
6424;SDS011;12193;42.642;23.384;2022-11-18T01:01:51;23.77;;;12.20;;
6424;SDS011;12193;42.642;23.384;2022-11-18T01:04:19;19.27;;;11.47;;
6424;SDS011;12193;42.642;23.384;2022-11-18T04:08:36;444.03;;;41.33;;
6424;SDS011;12193;42.642;23.384;2022-11-18T04:11:10;132.80;;;25.77;;
6424;SDS011;12193;42.642;23.384;2022-11-18T04:13:57;282.33;;;32.77;;
6424;SDS011;12193;42.642;23.384;2022-11-18T04:16:27;173.80;;;27.87;;
6424;SDS011;12193;42.642;23.384;2022-11-18T04:18:56;148.60;;;25.53;;
6424;SDS011;12193;42.642;23.384;2022-11-18T04:21:25;279.03;;;29.50;;
6424;SDS011;12193;42.642;23.384;2022-11-18T04:23:57;236.50;;;28.47;;
6424;SDS011;12193;42.642;23.384;2022-11-18T04:26:27;128.43;;;24.47;;
6424;SDS011;12193;42.642;23.384;2022-11-18T04:28:56;363.47;;;36.47;;
6424;SDS011;12193;42.642;23.384;2022-11-18T04:31:26;310.23;;;33.20;;
6424;SDS011;12193;42.642;23.384;2022-11-18T04:33:55;135.07;;;24.07;;
6424;SDS011;12193;42.642;23.384;2022-11-18T04:36:24;313.23;;;35.23;;
6424;SDS011;12193;42.642;23.384;2022-11-18T04:38:53;283.37;;;31.20;;
6424;SDS011;12193;42.642;23.384;2022-11-18T04:41:25;266.23;;;31.47;;
6424;SDS011;12193;42.642;23.384;2022-11-18T04:44:06;225.33;;;26.83;;
6424;SDS011;12193;42.642;23.384;2022-11-18T04:46:38;364.37;;;37.03;;
6424;SDS011;12193;42.642;23.384;2022-11-18T04:49:08;489.10;;;45.23;;
6424;SDS011;12193;42.642;23.384;2022-11-18T04:51:39;186.53;;;25.63;;
6424;SDS011;12193;42.642;23.384;2022-11-18T04:54:10;170.80;;;23.73;;
6424;SDS011;12193;42.642;23.384;2022-11-18T04:56:42;255.33;;;27.77;;
6424;SDS011;12193;42.642;23.384;2022-11-18T04:59:12;258.77;;;30.20;;
6424;SDS011;12193;42.642;23.384;2022-11-18T05:01:42;376.80;;;36.87;;
6424;SDS011;12193;42.642;23.384;2022-11-18T05:04:12;202.87;;;26.20;;
6424;SDS011;12193;42.642;23.384;2022-11-18T05:06:43;371.70;;;36.10;;
6424;SDS011;12193;42.642;23.384;2022-11-18T05:09:12;353.43;;;37.23;;
6424;SDS011;12193;42.642;23.384;2022-11-18T05:11:45;315.83;;;31.73;;
6424;SDS011;12193;42.642;23.384;2022-11-18T05:14:27;453.70;;;41.63;;
6424;SDS011;12193;42.642;23.384;2022-11-18T05:16:57;413.53;;;37.13;;
6424;SDS011;12193;42.642;23.384;2022-11-18T05:19:28;357.53;;;34.77;;
6424;SDS011;12193;42.642;23.384;2022-11-18T05:21:57;513.90;;;47.30;;
6424;SDS011;12193;42.642;23.384;2022-11-18T05:24:26;230.63;;;30.17;;
6424;SDS011;12193;42.642;23.384;2022-11-18T05:26:58;479.50;;;48.43;;
6424;SDS011;12193;42.642;23.384;2022-11-18T05:29:27;461.97;;;41.90;;
6424;SDS011;12193;42.642;23.384;2022-11-18T05:31:58;263.77;;;32.50;;
6424;SDS011;12193;42.642;23.384;2022-11-18T05:34:27;449.43;;;44.43;;
6424;SDS011;12193;42.642;23.384;2022-11-18T05:36:56;651.50;;;57.77;;
6424;SDS011;12193;42.642;23.384;2022-11-18T05:39:26;321.10;;;33.13;;
6424;SDS011;12193;42.642;23.384;2022-11-18T05:41:57;317.23;;;30.17;;
6424;SDS011;12193;42.642;23.384;2022-11-18T05:44:39;552.73;;;47.37;;
6424;SDS011;12193;42.642;23.384;2022-11-18T05:47:09;179.07;;;27.57;;
6424;SDS011;12193;42.642;23.384;2022-11-18T05:49:38;406.90;;;38.07;;
6424;SDS011;12193;42.642;23.384;2022-11-18T05:52:08;206.47;;;25.93;;
6424;SDS011;12193;42.642;23.384;2022-11-18T05:54:37;379.93;;;41.47;;
6424;SDS011;12193;42.642;23.384;2022-11-18T05:57:09;293.77;;;27.73;;
6424;SDS011;12193;42.642;23.384;2022-11-18T05:59:39;223.30;;;20.20;;
6424;SDS011;12193;42.642;23.384;2022-11-18T06:02:10;541.60;;;42.10;;
6424;SDS011;12193;42.642;23.384;2022-11-18T06:04:42;574.80;;;44.10;;
6424;SDS011;12193;42.642;23.384;2022-11-18T06:07:14;446.80;;;30.87;;
6424;SDS011;12193;42.642;23.384;2022-11-18T06:09:48;176.07;;;22.30;;
6424;SDS011;12193;42.642;23.384;2022-11-18T06:12:23;283.30;;;27.40;;
6424;SDS011;12193;42.642;23.384;2022-11-18T06:14:58;344.27;;;31.23;;
6424;SDS011;12193;42.642;23.384;2022-11-18T06:17:31;149.40;;;22.90;;
6424;SDS011;12193;42.642;23.384;2022-11-18T06:20:07;433.10;;;36.83;;
6424;SDS011;12193;42.642;23.384;2022-11-18T06:22:38;402.30;;;35.83;;
6424;SDS011;12193;42.642;23.384;2022-11-18T06:25:07;266.17;;;25.70;;
6424;SDS011;12193;42.642;23.384;2022-11-18T06:27:39;273.97;;;30.53;;
6424;SDS011;12193;42.642;23.384;2022-11-18T06:30:09;388.67;;;38.27;;
6424;SDS011;12193;42.642;23.384;2022-11-18T06:32:40;567.80;;;50.43;;
6424;SDS011;12193;42.642;23.384;2022-11-18T06:35:09;224.80;;;26.63;;
6424;SDS011;12193;42.642;23.384;2022-11-18T06:37:38;268.53;;;29.50;;
6424;SDS011;12193;42.642;23.384;2022-11-18T06:40:08;345.33;;;30.77;;
6424;SDS011;12193;42.642;23.384;2022-11-18T06:42:41;372.80;;;32.53;;
6424;SDS011;12193;42.642;23.384;2022-11-18T06:45:23;285.43;;;28.17;;
6424;SDS011;12193;42.642;23.384;2022-11-18T06:47:55;255.03;;;19.50;;
6424;SDS011;12193;42.642;23.384;2022-11-18T06:50:25;233.23;;;23.90;;
6424;SDS011;12193;42.642;23.384;2022-11-18T06:52:54;544.50;;;43.27;;
6424;SDS011;12193;42.642;23.384;2022-11-18T06:55:23;266.27;;;26.17;;
6424;SDS011;12193;42.642;23.384;2022-11-18T06:57:57;169.87;;;20.30;;
6424;SDS011;12193;42.642;23.384;2022-11-18T07:00:26;604.03;;;44.33;;
6424;SDS011;12193;42.642;23.384;2022-11-18T07:02:55;359.97;;;29.23;;
6424;SDS011;12193;42.642;23.384;2022-11-18T07:05:24;205.43;;;20.90;;
6424;SDS011;12193;42.642;23.384;2022-11-18T07:07:53;399.73;;;28.80;;
6424;SDS011;12193;42.642;23.384;2022-11-18T07:10:23;316.17;;;25.90;;
6424;SDS011;12193;42.642;23.384;2022-11-18T07:12:52;326.80;;;24.90;;
6424;SDS011;12193;42.642;23.384;2022-11-18T07:15:24;519.80;;;37.10;;
6424;SDS011;12193;42.642;23.384;2022-11-18T07:17:53;265.83;;;27.60;;
6424;SDS011;12193;42.642;23.384;2022-11-18T07:20:22;708.50;;;52.90;;
6424;SDS011;12193;42.642;23.384;2022-11-18T07:22:51;246.30;;;25.40;;
6424;SDS011;12193;42.642;23.384;2022-11-18T07:25:21;283.77;;;24.27;;
6424;SDS011;12193;42.642;23.384;2022-11-18T07:27:50;235.90;;;21.10;;
6424;SDS011;12193;42.642;23.384;2022-11-18T07:30:19;211.77;;;22.87;;
6424;SDS011;12193;42.642;23.384;2022-11-18T07:32:51;715.20;;;58.20;;
6424;SDS011;12193;42.642;23.384;2022-11-18T07:35:20;547.17;;;48.07;;
6424;SDS011;12193;42.642;23.384;2022-11-18T07:37:50;190.53;;;26.97;;
6424;SDS011;12193;42.642;23.384;2022-11-18T07:40:19;510.27;;;47.37;;
6424;SDS011;12193;42.642;23.384;2022-11-18T07:42:48;415.90;;;38.33;;
6424;SDS011;12193;42.642;23.384;2022-11-18T07:45:17;155.60;;;24.83;;
6424;SDS011;12193;42.642;23.384;2022-11-18T07:47:47;548.07;;;46.07;;
6424;SDS011;12193;42.642;23.384;2022-11-18T07:50:18;255.87;;;28.57;;
6424;SDS011;12193;42.642;23.384;2022-11-18T07:52:48;192.87;;;25.50;;
6424;SDS011;12193;42.642;23.384;2022-11-18T07:55:17;413.50;;;38.10;;
6424;SDS011;12193;42.642;23.384;2022-11-18T07:57:46;519.33;;;41.70;;
6424;SDS011;12193;42.642;23.384;2022-11-18T08:00:16;255.87;;;25.87;;
6424;SDS011;12193;42.642;23.384;2022-11-18T08:02:48;130.37;;;22.07;;
6424;SDS011;12193;42.642;23.384;2022-11-18T08:05:20;514.13;;;41.53;;
6424;SDS011;12193;42.642;23.384;2022-11-18T08:07:50;653.87;;;55.10;;
6424;SDS011;12193;42.642;23.384;2022-11-18T08:10:19;160.03;;;25.57;;
6424;SDS011;12193;42.642;23.384;2022-11-18T08:12:49;164.90;;;27.23;;
6424;SDS011;12193;42.642;23.384;2022-11-18T08:15:18;83.70;;;22.40;;
6424;SDS011;12193;42.642;23.384;2022-11-18T08:17:48;71.40;;;22.20;;
6424;SDS011;12193;42.642;23.384;2022-11-18T08:20:20;257.60;;;31.00;;
6424;SDS011;12193;42.642;23.384;2022-11-18T08:22:52;120.17;;;27.63;;
6424;SDS011;12193;42.642;23.384;2022-11-18T08:25:21;73.00;;;26.83;;
6424;SDS011;12193;42.642;23.384;2022-11-18T08:27:50;54.23;;;21.97;;
6424;SDS011;12193;42.642;23.384;2022-11-18T08:30:19;75.93;;;27.50;;
6424;SDS011;12193;42.642;23.384;2022-11-18T08:32:49;32.13;;;14.37;;
6424;SDS011;12193;42.642;23.384;2022-11-18T08:35:20;62.93;;;24.27;;
6424;SDS011;12193;42.642;23.384;2022-11-18T08:37:50;58.87;;;26.23;;
6424;SDS011;12193;42.642;23.384;2022-11-18T08:40:19;68.60;;;29.93;;
6424;SDS011;12193;42.642;23.384;2022-11-18T08:42:49;47.87;;;22.97;;
6424;SDS011;12193;42.642;23.384;2022-11-18T08:45:18;36.43;;;18.87;;
6424;SDS011;12193;42.642;23.384;2022-11-18T08:47:48;43.57;;;18.67;;
6424;SDS011;12193;42.642;23.384;2022-11-18T08:50:17;39.33;;;19.53;;
6424;SDS011;12193;42.642;23.384;2022-11-18T08:52:49;41.93;;;19.40;;
6424;SDS011;12193;42.642;23.384;2022-11-18T08:55:18;42.60;;;19.37;;
6424;SDS011;12193;42.642;23.384;2022-11-18T08:57:47;40.37;;;18.97;;
6424;SDS011;12193;42.642;23.384;2022-11-18T09:00:17;36.77;;;17.90;;
6424;SDS011;12193;42.642;23.384;2022-11-18T09:02:47;37.50;;;18.00;;
6424;SDS011;12193;42.642;23.384;2022-11-18T09:05:16;45.17;;;19.53;;
6424;SDS011;12193;42.642;23.384;2022-11-18T09:07:45;41.30;;;18.43;;
6424;SDS011;12193;42.642;23.384;2022-11-18T09:10:17;46.37;;;20.17;;
6424;SDS011;12193;42.642;23.384;2022-11-18T09:12:47;37.30;;;18.50;;
6424;SDS011;12193;42.642;23.384;2022-11-18T09:15:16;39.57;;;19.00;;
6424;SDS011;12193;42.642;23.384;2022-11-18T09:17:45;31.63;;;14.80;;
6424;SDS011;12193;42.642;23.384;2022-11-18T09:20:15;28.77;;;14.50;;
6424;SDS011;12193;42.642;23.384;2022-11-18T09:22:44;27.63;;;14.30;;
6424;SDS011;12193;42.642;23.384;2022-11-18T09:25:16;27.77;;;14.77;;
6424;SDS011;12193;42.642;23.384;2022-11-18T09:27:46;36.97;;;16.33;;
6424;SDS011;12193;42.642;23.384;2022-11-18T09:30:18;35.60;;;15.97;;
6424;SDS011;12193;42.642;23.384;2022-11-18T09:32:47;34.17;;;16.37;;
6424;SDS011;12193;42.642;23.384;2022-11-18T09:35:16;38.93;;;18.10;;
6424;SDS011;12193;42.642;23.384;2022-11-18T09:37:45;49.13;;;19.77;;
6424;SDS011;12193;42.642;23.384;2022-11-18T09:40:17;51.30;;;22.37;;
6424;SDS011;12193;42.642;23.384;2022-11-18T09:42:50;62.27;;;25.07;;
6424;SDS011;12193;42.642;23.384;2022-11-18T09:45:26;68.90;;;26.23;;
6424;SDS011;12193;42.642;23.384;2022-11-18T09:48:00;58.77;;;26.07;;
6424;SDS011;12193;42.642;23.384;2022-11-18T09:50:41;65.23;;;26.47;;
6424;SDS011;12193;42.642;23.384;2022-11-18T09:53:13;55.70;;;24.27;;
6424;SDS011;12193;42.642;23.384;2022-11-18T09:55:49;48.57;;;21.87;;
6424;SDS011;12193;42.642;23.384;2022-11-18T09:58:20;43.43;;;19.53;;
6424;SDS011;12193;42.642;23.384;2022-11-18T10:00:53;38.33;;;19.37;;
6424;SDS011;12193;42.642;23.384;2022-11-18T10:03:25;43.87;;;19.97;;
6424;SDS011;12193;42.642;23.384;2022-11-18T10:05:57;39.90;;;19.93;;
6424;SDS011;12193;42.642;23.384;2022-11-18T10:08:35;42.97;;;19.70;;
6424;SDS011;12193;42.642;23.384;2022-11-18T10:11:15;44.90;;;19.03;;
6424;SDS011;12193;42.642;23.384;2022-11-18T10:13:52;50.13;;;21.57;;
6424;SDS011;12193;42.642;23.384;2022-11-18T10:16:31;48.20;;;22.03;;
6424;SDS011;12193;42.642;23.384;2022-11-18T10:19:15;44.17;;;21.33;;
6424;SDS011;12193;42.642;23.384;2022-11-18T10:21:53;43.97;;;19.67;;
6424;SDS011;12193;42.642;23.384;2022-11-18T10:24:34;44.33;;;21.83;;
6424;SDS011;12193;42.642;23.384;2022-11-18T10:27:11;47.20;;;20.23;;
6424;SDS011;12193;42.642;23.384;2022-11-18T10:29:42;43.60;;;20.37;;
6424;SDS011;12193;42.642;23.384;2022-11-18T10:32:14;39.30;;;18.53;;
6424;SDS011;12193;42.642;23.384;2022-11-18T10:34:45;13.57;;;6.87;;
6424;SDS011;12193;42.642;23.384;2022-11-18T10:37:24;15.10;;;7.67;;
6424;SDS011;12193;42.642;23.384;2022-11-18T10:39:56;14.83;;;6.80;;
6424;SDS011;12193;42.642;23.384;2022-11-18T10:42:33;31.10;;;12.80;;
6424;SDS011;12193;42.642;23.384;2022-11-18T10:45:13;18.70;;;8.27;;
6424;SDS011;12193;42.642;23.384;2022-11-18T10:47:47;8.83;;;5.23;;
6424;SDS011;12193;42.642;23.384;2022-11-18T10:50:27;1.67;;;1.57;;
6424;SDS011;12193;42.642;23.384;2022-11-18T10:52:58;19.93;;;9.73;;
6424;SDS011;12193;42.642;23.384;2022-11-18T10:55:27;49.40;;;22.03;;
6424;SDS011;12193;42.642;23.384;2022-11-18T10:58:01;39.17;;;17.47;;
6424;SDS011;12193;42.642;23.384;2022-11-18T11:00:38;54.77;;;23.27;;
6424;SDS011;12193;42.642;23.384;2022-11-18T11:06:12;47.93;;;21.27;;
6424;SDS011;12193;42.642;23.384;2022-11-18T11:09:24;50.57;;;22.33;;
6424;SDS011;12193;42.642;23.384;2022-11-18T11:11:59;19.47;;;9.50;;
6424;SDS011;12193;42.642;23.384;2022-11-18T11:14:34;35.83;;;17.77;;
6424;SDS011;12193;42.642;23.384;2022-11-18T11:17:10;36.17;;;17.43;;
6424;SDS011;12193;42.642;23.384;2022-11-18T11:19:47;43.07;;;18.53;;
6424;SDS011;12193;42.642;23.384;2022-11-18T11:22:19;43.30;;;19.53;;
6424;SDS011;12193;42.642;23.384;2022-11-18T11:24:49;46.47;;;20.83;;
6424;SDS011;12193;42.642;23.384;2022-11-18T11:27:27;54.47;;;21.67;;
6424;SDS011;12193;42.642;23.384;2022-11-18T11:30:17;40.07;;;19.37;;
6424;SDS011;12193;42.642;23.384;2022-11-18T11:32:56;42.43;;;18.40;;
6424;SDS011;12193;42.642;23.384;2022-11-18T11:35:39;46.40;;;20.90;;
6424;SDS011;12193;42.642;23.384;2022-11-18T11:38:16;48.50;;;21.60;;
6424;SDS011;12193;42.642;23.384;2022-11-18T11:40:56;45.73;;;21.17;;
6424;SDS011;12193;42.642;23.384;2022-11-18T11:43:38;44.10;;;19.77;;
6424;SDS011;12193;42.642;23.384;2022-11-18T11:46:22;42.87;;;18.53;;
6424;SDS011;12193;42.642;23.384;2022-11-18T11:48:56;43.83;;;19.33;;
6424;SDS011;12193;42.642;23.384;2022-11-18T11:51:39;48.00;;;20.13;;
6424;SDS011;12193;42.642;23.384;2022-11-18T11:57:12;41.37;;;19.43;;
6424;SDS011;12193;42.642;23.384;2022-11-18T11:59:51;41.70;;;17.73;;
6424;SDS011;12193;42.642;23.384;2022-11-18T12:02:35;33.97;;;16.07;;
6424;SDS011;12193;42.642;23.384;2022-11-18T12:05:16;27.23;;;14.20;;
6424;SDS011;12193;42.642;23.384;2022-11-18T12:07:52;36.40;;;14.07;;
6424;SDS011;12193;42.642;23.384;2022-11-18T12:10:27;35.07;;;15.97;;
6424;SDS011;12193;42.642;23.384;2022-11-18T12:13:04;31.40;;;15.57;;
6424;SDS011;12193;42.642;23.384;2022-11-18T12:15:59;28.90;;;15.33;;
6424;SDS011;12193;42.642;23.384;2022-11-18T12:18:37;35.90;;;16.70;;
6424;SDS011;12193;42.642;23.384;2022-11-18T12:27:02;38.93;;;16.70;;
6424;SDS011;12193;42.642;23.384;2022-11-18T12:29:41;30.77;;;16.03;;
6424;SDS011;12193;42.642;23.384;2022-11-18T12:32:24;34.00;;;16.23;;
6424;SDS011;12193;42.642;23.384;2022-11-18T12:35:03;31.60;;;16.40;;
6424;SDS011;12193;42.642;23.384;2022-11-18T12:38:01;28.83;;;15.57;;
6424;SDS011;12193;42.642;23.384;2022-11-18T12:40:33;34.40;;;15.93;;
6424;SDS011;12193;42.642;23.384;2022-11-18T12:52:47;36.43;;;17.23;;
6424;SDS011;12193;42.642;23.384;2022-11-18T12:55:20;38.10;;;16.47;;
6424;SDS011;12193;42.642;23.384;2022-11-18T12:57:53;31.97;;;15.83;;
6424;SDS011;12193;42.642;23.384;2022-11-18T13:00:29;29.17;;;15.20;;
6424;SDS011;12193;42.642;23.384;2022-11-18T13:03:23;24.60;;;13.23;;
6424;SDS011;12193;42.642;23.384;2022-11-18T13:06:00;26.83;;;11.53;;
6424;SDS011;12193;42.642;23.384;2022-11-18T13:08:36;23.07;;;10.90;;
6424;SDS011;12193;42.642;23.384;2022-11-18T13:11:09;14.40;;;7.10;;
6424;SDS011;12193;42.642;23.384;2022-11-18T13:13:55;19.57;;;10.70;;
6424;SDS011;12193;42.642;23.384;2022-11-18T13:16:38;21.57;;;10.77;;
6424;SDS011;12193;42.642;23.384;2022-11-18T13:19:20;29.13;;;12.17;;
6424;SDS011;12193;42.642;23.384;2022-11-18T13:21:52;21.63;;;10.03;;
6424;SDS011;12193;42.642;23.384;2022-11-18T13:24:42;17.43;;;6.43;;
6424;SDS011;12193;42.642;23.384;2022-11-18T13:27:19;4.30;;;2.87;;
6424;SDS011;12193;42.642;23.384;2022-11-18T13:29:56;4.10;;;2.23;;
6424;SDS011;12193;42.642;23.384;2022-11-18T13:32:30;4.40;;;1.90;;
6424;SDS011;12193;42.642;23.384;2022-11-18T13:35:06;3.53;;;1.97;;
6424;SDS011;12193;42.642;23.384;2022-11-18T13:37:46;3.53;;;1.80;;
6424;SDS011;12193;42.642;23.384;2022-11-18T13:40:21;1.83;;;1.43;;
6424;SDS011;12193;42.642;23.384;2022-11-18T13:42:53;2.37;;;1.40;;
6424;SDS011;12193;42.642;23.384;2022-11-18T13:45:23;1.40;;;1.30;;
6424;SDS011;12193;42.642;23.384;2022-11-18T13:47:56;2.67;;;1.60;;
6424;SDS011;12193;42.642;23.384;2022-11-18T13:50:30;1.40;;;1.20;;
6424;SDS011;12193;42.642;23.384;2022-11-18T13:53:11;4.37;;;1.87;;
6424;SDS011;12193;42.642;23.384;2022-11-18T13:55:52;6.73;;;2.20;;
6424;SDS011;12193;42.642;23.384;2022-11-18T13:58:35;3.73;;;1.93;;
6424;SDS011;12193;42.642;23.384;2022-11-18T14:01:11;3.67;;;2.07;;
6424;SDS011;12193;42.642;23.384;2022-11-18T14:03:47;6.97;;;2.23;;
6424;SDS011;12193;42.642;23.384;2022-11-18T14:06:25;2.97;;;1.67;;
6424;SDS011;12193;42.642;23.384;2022-11-18T14:09:05;2.00;;;1.50;;
6424;SDS011;12193;42.642;23.384;2022-11-18T14:11:56;1.70;;;1.40;;
6424;SDS011;12193;42.642;23.384;2022-11-18T14:14:27;5.07;;;1.70;;
6424;SDS011;12193;42.642;23.384;2022-11-18T14:17:11;3.17;;;1.30;;
6424;SDS011;12193;42.642;23.384;2022-11-18T14:19:44;3.67;;;1.20;;
6424;SDS011;12193;42.642;23.384;2022-11-18T14:22:14;2.77;;;1.63;;
6424;SDS011;12193;42.642;23.384;2022-11-18T14:24:52;1.93;;;1.50;;
6424;SDS011;12193;42.642;23.384;2022-11-18T14:27:38;2.27;;;1.67;;
6424;SDS011;12193;42.642;23.384;2022-11-18T14:33:13;2.93;;;1.77;;
6424;SDS011;12193;42.642;23.384;2022-11-18T14:35:48;7.10;;;1.90;;
6424;SDS011;12193;42.642;23.384;2022-11-18T14:38:20;1.70;;;1.53;;
6424;SDS011;12193;42.642;23.384;2022-11-18T14:40:55;2.60;;;1.67;;
6424;SDS011;12193;42.642;23.384;2022-11-18T14:43:28;2.67;;;1.90;;
6424;SDS011;12193;42.642;23.384;2022-11-18T14:45:59;4.13;;;1.80;;
6424;SDS011;12193;42.642;23.384;2022-11-18T14:48:30;2.47;;;2.00;;
6424;SDS011;12193;42.642;23.384;2022-11-18T14:51:00;4.00;;;1.90;;
6424;SDS011;12193;42.642;23.384;2022-11-18T14:53:29;3.73;;;1.77;;
6424;SDS011;12193;42.642;23.384;2022-11-18T14:55:58;2.40;;;1.47;;
6424;SDS011;12193;42.642;23.384;2022-11-18T14:58:32;2.40;;;1.60;;
6424;SDS011;12193;42.642;23.384;2022-11-18T15:01:01;2.33;;;1.53;;
6424;SDS011;12193;42.642;23.384;2022-11-18T15:03:33;3.70;;;2.10;;
6424;SDS011;12193;42.642;23.384;2022-11-18T15:06:03;6.10;;;2.20;;
6424;SDS011;12193;42.642;23.384;2022-11-18T15:08:34;2.80;;;1.60;;
6424;SDS011;12193;42.642;23.384;2022-11-18T15:11:03;3.27;;;2.00;;
6424;SDS011;12193;42.642;23.384;2022-11-18T15:13:35;2.90;;;1.80;;
6424;SDS011;12193;42.642;23.384;2022-11-18T15:16:09;2.77;;;1.80;;
6424;SDS011;12193;42.642;23.384;2022-11-18T15:18:41;4.33;;;1.97;;
6424;SDS011;12193;42.642;23.384;2022-11-18T15:21:12;6.80;;;2.40;;
6424;SDS011;12193;42.642;23.384;2022-11-18T15:23:41;3.10;;;1.53;;
6424;SDS011;12193;42.642;23.384;2022-11-18T15:26:15;3.27;;;1.60;;
6424;SDS011;12193;42.642;23.384;2022-11-18T15:28:50;3.80;;;1.60;;
6424;SDS011;12193;42.642;23.384;2022-11-18T15:31:21;2.93;;;2.20;;
6424;SDS011;12193;42.642;23.384;2022-11-18T15:33:52;3.50;;;1.80;;
6424;SDS011;12193;42.642;23.384;2022-11-18T15:36:22;3.73;;;1.87;;
6424;SDS011;12193;42.642;23.384;2022-11-18T15:38:53;2.80;;;2.00;;
6424;SDS011;12193;42.642;23.384;2022-11-18T15:41:23;4.30;;;2.60;;
6424;SDS011;12193;42.642;23.384;2022-11-18T15:43:57;2.87;;;1.87;;
6424;SDS011;12193;42.642;23.384;2022-11-18T15:46:28;2.13;;;1.53;;
6424;SDS011;12193;42.642;23.384;2022-11-18T15:48:58;4.20;;;1.80;;
6424;SDS011;12193;42.642;23.384;2022-11-18T15:51:28;3.93;;;1.67;;
6424;SDS011;12193;42.642;23.384;2022-11-18T15:53:58;2.07;;;1.30;;
6424;SDS011;12193;42.642;23.384;2022-11-18T15:56:29;3.03;;;1.60;;
6424;SDS011;12193;42.642;23.384;2022-11-18T15:59:02;2.80;;;1.80;;
6424;SDS011;12193;42.642;23.384;2022-11-18T16:01:34;6.00;;;2.37;;
6424;SDS011;12193;42.642;23.384;2022-11-18T16:04:05;4.37;;;2.30;;
6424;SDS011;12193;42.642;23.384;2022-11-18T16:06:38;2.53;;;1.70;;
6424;SDS011;12193;42.642;23.384;2022-11-18T16:09:08;3.43;;;1.90;;
6424;SDS011;12193;42.642;23.384;2022-11-18T16:11:38;2.90;;;1.57;;
6424;SDS011;12193;42.642;23.384;2022-11-18T16:14:23;4.37;;;2.10;;
6424;SDS011;12193;42.642;23.384;2022-11-18T16:16:53;7.37;;;3.07;;
6424;SDS011;12193;42.642;23.384;2022-11-18T16:19:24;5.50;;;3.00;;
6424;SDS011;12193;42.642;23.384;2022-11-18T16:21:58;5.87;;;2.67;;
6424;SDS011;12193;42.642;23.384;2022-11-18T16:24:28;5.03;;;3.00;;
6424;SDS011;12193;42.642;23.384;2022-11-18T16:26:57;6.23;;;3.37;;
6424;SDS011;12193;42.642;23.384;2022-11-18T16:29:29;9.33;;;3.83;;
6424;SDS011;12193;42.642;23.384;2022-11-18T16:31:58;3.77;;;2.67;;
6424;SDS011;12193;42.642;23.384;2022-11-18T16:34:25;7.03;;;3.27;;
6424;SDS011;12193;42.642;23.384;2022-11-18T16:36:56;3.50;;;2.37;;
6424;SDS011;12193;42.642;23.384;2022-11-18T16:39:28;5.00;;;2.33;;
6424;SDS011;12193;42.642;23.384;2022-11-18T16:41:57;3.93;;;2.87;;
6424;SDS011;12193;42.642;23.384;2022-11-18T16:44:31;3.90;;;2.60;;
6424;SDS011;12193;42.642;23.384;2022-11-18T16:47:00;3.17;;;2.10;;
6424;SDS011;12193;42.642;23.384;2022-11-18T16:49:33;2.73;;;1.87;;
6424;SDS011;12193;42.642;23.384;2022-11-18T16:52:02;3.00;;;2.40;;
6424;SDS011;12193;42.642;23.384;2022-11-18T16:54:32;4.50;;;2.83;;
6424;SDS011;12193;42.642;23.384;2022-11-18T16:57:01;22.03;;;10.33;;
6424;SDS011;12193;42.642;23.384;2022-11-18T16:59:33;29.57;;;15.10;;
6424;SDS011;12193;42.642;23.384;2022-11-18T17:02:03;3.50;;;2.23;;
6424;SDS011;12193;42.642;23.384;2022-11-18T17:04:32;3.47;;;1.90;;
6424;SDS011;12193;42.642;23.384;2022-11-18T17:07:03;4.20;;;2.83;;
6424;SDS011;12193;42.642;23.384;2022-11-18T17:09:33;5.60;;;2.50;;
6424;SDS011;12193;42.642;23.384;2022-11-18T17:12:02;7.17;;;3.73;;
6424;SDS011;12193;42.642;23.384;2022-11-18T17:14:34;3.73;;;2.40;;
6424;SDS011;12193;42.642;23.384;2022-11-18T17:17:05;6.60;;;3.07;;
6424;SDS011;12193;42.642;23.384;2022-11-18T17:19:34;3.93;;;2.70;;
6424;SDS011;12193;42.642;23.384;2022-11-18T17:22:04;5.33;;;2.90;;
6424;SDS011;12193;42.642;23.384;2022-11-18T17:24:33;6.47;;;3.63;;
6424;SDS011;12193;42.642;23.384;2022-11-18T17:27:02;4.93;;;2.83;;
6424;SDS011;12193;42.642;23.384;2022-11-18T17:29:32;4.20;;;2.70;;
6424;SDS011;12193;42.642;23.384;2022-11-18T17:32:04;5.30;;;2.63;;
6424;SDS011;12193;42.642;23.384;2022-11-18T17:34:33;8.00;;;3.93;;
6424;SDS011;12193;42.642;23.384;2022-11-18T17:37:03;6.97;;;2.90;;
6424;SDS011;12193;42.642;23.384;2022-11-18T17:39:32;5.40;;;3.47;;
6424;SDS011;12193;42.642;23.384;2022-11-18T17:42:01;7.23;;;4.07;;
6424;SDS011;12193;42.642;23.384;2022-11-18T17:44:50;7.60;;;3.30;;
6424;SDS011;12193;42.642;23.384;2022-11-18T17:47:19;5.27;;;3.77;;
6424;SDS011;12193;42.642;23.384;2022-11-18T17:49:49;14.70;;;8.50;;
6424;SDS011;12193;42.642;23.384;2022-11-18T17:52:18;5.17;;;3.33;;
6424;SDS011;12193;42.642;23.384;2022-11-18T17:54:47;5.53;;;2.77;;
6424;SDS011;12193;42.642;23.384;2022-11-18T17:57:17;5.17;;;3.00;;
6424;SDS011;12193;42.642;23.384;2022-11-18T17:59:46;5.57;;;3.27;;
6424;SDS011;12193;42.642;23.384;2022-11-18T18:02:18;3.00;;;2.33;;
6424;SDS011;12193;42.642;23.384;2022-11-18T18:04:47;5.77;;;2.57;;
6424;SDS011;12193;42.642;23.384;2022-11-18T18:07:17;8.87;;;3.90;;
6424;SDS011;12193;42.642;23.384;2022-11-18T18:09:47;9.17;;;2.93;;
6424;SDS011;12193;42.642;23.384;2022-11-18T18:12:16;6.23;;;2.90;;
6424;SDS011;12193;42.642;23.384;2022-11-18T18:14:58;8.67;;;2.73;;
6424;SDS011;12193;42.642;23.384;2022-11-18T18:17:29;5.07;;;2.87;;
6424;SDS011;12193;42.642;23.384;2022-11-18T18:19:59;11.70;;;7.27;;
6424;SDS011;12193;42.642;23.384;2022-11-18T18:22:28;3.50;;;2.47;;
6424;SDS011;12193;42.642;23.384;2022-11-18T18:24:57;5.70;;;3.00;;